Time;durP1;ratioP1;P1;durP2;ratioP2;P2;SDS_P1;SDS_P2;PMS_P1;PMS_P2;Temp;Humidity;BMP_temperature;BMP_pressure;BME280_temperature;BME280_humidity;BME280_pressure;Samples;Min_cycle;Max_cycle;Signal;HPM_P1;HPM_P2
2021/10/15 00:00:23;;;;;;;5.15;4.10;;;;;;;;;;6277291;22;20146;-62
2021/10/15 00:02:49;;;;;;;6.95;3.72;;;;;;;;;;6277322;22;20149;-62
2021/10/15 00:05:15;;;;;;;5.60;3.75;;;;;;;;;;6277303;22;20227;-62
2021/10/15 00:07:40;;;;;;;5.07;4.28;;;;;;;;;;6277433;22;20146;-62
2021/10/15 00:10:07;;;;;;;7.13;4.07;;;;;;;;;;6277226;22;20147;-61
2021/10/15 00:12:34;;;;;;;7.25;4.15;;;;;;;;;;6277114;22;20156;-62
2021/10/15 00:15:00;;;;;;;5.90;4.40;;;;;;;;;;6277555;22;20151;-62
2021/10/15 00:17:26;;;;;;;6.57;4.50;;;;;;;;;;6277094;22;20206;-62
2021/10/15 00:19:52;;;;;;;5.70;4.05;;;;;;;;;;6277314;22;20197;-62
2021/10/15 00:22:18;;;;;;;6.65;4.63;;;;;;;;;;6277237;22;20140;-62
2021/10/15 00:24:44;;;;;;;7.53;4.80;;;;;;;;;;6277787;22;20475;-62
2021/10/15 00:27:09;;;;;;;4.97;4.47;;;;;;;;;;6277571;22;20162;-62
2021/10/15 00:29:37;;;;;;;7.60;5.13;;;;;;;;;;6277798;22;20441;-62
2021/10/15 00:32:03;;;;;;;6.32;5.55;;;;;;;;;;6277861;22;20140;-62
2021/10/15 00:34:29;;;;;;;7.13;5.45;;;;;;;;;;6277840;22;20461;-62
2021/10/15 00:36:55;;;;;;;6.40;5.57;;;;;;;;;;6277355;22;20155;-62
2021/10/15 00:39:21;;;;;;;6.57;5.82;;;;;;;;;;6277296;22;20175;-62
2021/10/15 00:41:47;;;;;;;7.63;5.22;;;;;;;;;;6277245;22;20555;-61
2021/10/15 00:44:13;;;;;;;9.48;6.55;;;;;;;;;;6277262;22;20144;-61
2021/10/15 00:46:40;;;;;;;8.23;5.70;;;;;;;;;;6277469;22;20144;-61
2021/10/15 00:49:06;;;;;;;6.25;5.40;;;;;;;;;;6277143;22;20182;-61
2021/10/15 00:51:33;;;;;;;8.23;6.05;;;;;;;;;;6277348;22;20152;-61
2021/10/15 00:54:00;;;;;;;8.05;5.88;;;;;;;;;;6277131;22;20222;-61
2021/10/15 00:56:28;;;;;;;9.02;6.60;;;;;;;;;;6277027;22;20605;-61
2021/10/15 00:58:54;;;;;;;9.23;6.10;;;;;;;;;;6276542;22;20172;-61
2021/10/15 01:01:20;;;;;;;8.55;6.10;;;;;;;;;;6276899;22;20140;-61
2021/10/15 01:03:46;;;;;;;8.95;6.70;;;;;;;;;;6276848;22;20136;-61
2021/10/15 01:06:12;;;;;;;10.48;6.82;;;;;;;;;;6276797;22;20140;-61
2021/10/15 01:08:40;;;;;;;6.93;6.05;;;;;;;;;;6276881;22;20198;-61
2021/10/15 01:11:07;;;;;;;6.93;5.97;;;;;;;;;;6277141;22;20157;-61
2021/10/15 01:13:33;;;;;;;7.60;6.00;;;;;;;;;;6276784;22;20599;-62
2021/10/15 01:16:03;;;;;;;8.48;6.75;;;;;;;;;;6276824;22;20488;-61
2021/10/15 01:18:29;;;;;;;8.38;6.20;;;;;;;;;;6277098;22;20509;-61
2021/10/15 01:20:55;;;;;;;8.50;6.82;;;;;;;;;;6276645;22;20214;-61
2021/10/15 01:23:21;;;;;;;7.90;5.88;;;;;;;;;;6276690;22;20167;-61
2021/10/15 01:25:47;;;;;;;7.63;5.65;;;;;;;;;;6276547;22;20456;-61
2021/10/15 01:28:13;;;;;;;11.88;7.32;;;;;;;;;;6276569;22;20157;-61
2021/10/15 01:30:39;;;;;;;9.98;6.85;;;;;;;;;;6276823;22;20143;-61
2021/10/15 01:33:04;;;;;;;10.45;7.90;;;;;;;;;;6276843;22;20148;-61
2021/10/15 01:35:30;;;;;;;10.40;7.20;;;;;;;;;;6276533;22;20435;-61
2021/10/15 01:37:56;;;;;;;9.48;7.63;;;;;;;;;;6276415;22;20181;-61
2021/10/15 01:40:22;;;;;;;10.32;7.45;;;;;;;;;;6276857;22;20143;-60
2021/10/15 01:42:54;;;;;;;9.38;7.22;;;;;;;;;;6276301;22;20559;-61
2021/10/15 01:45:27;;;;;;;8.60;7.15;;;;;;;;;;6276918;22;20128;-61
2021/10/15 01:47:54;;;;;;;9.38;7.85;;;;;;;;;;6276340;22;20563;-61
2021/10/15 01:50:20;;;;;;;9.52;7.72;;;;;;;;;;6276706;22;20147;-61
2021/10/15 01:52:46;;;;;;;9.95;8.10;;;;;;;;;;6276607;22;20182;-61
2021/10/15 01:55:12;;;;;;;10.38;8.52;;;;;;;;;;6276738;22;20475;-61
2021/10/15 01:57:39;;;;;;;10.85;8.20;;;;;;;;;;6276587;22;20167;-61
2021/10/15 02:00:06;;;;;;;10.25;7.80;;;;;;;;;;6276360;22;20140;-60
2021/10/15 02:02:31;;;;;;;9.95;7.93;;;;;;;;;;6276556;22;20548;-61
2021/10/15 02:04:58;;;;;;;15.38;8.63;;;;;;;;;;6276324;22;20146;-61
2021/10/15 02:07:24;;;;;;;12.00;8.73;;;;;;;;;;6276177;22;20544;-61
2021/10/15 02:09:50;;;;;;;13.05;9.07;;;;;;;;;;6276417;22;20406;-61
2021/10/15 02:12:16;;;;;;;13.13;9.35;;;;;;;;;;6278104;22;20234;-61
2021/10/15 02:14:42;;;;;;;16.85;9.63;;;;;;;;;;6278179;22;20163;-60
2021/10/15 02:17:08;;;;;;;14.77;10.90;;;;;;;;;;6278141;22;20234;-61
2021/10/15 02:19:34;;;;;;;17.58;11.05;;;;;;;;;;6278021;22;20602;-61
2021/10/15 02:22:00;;;;;;;13.27;10.15;;;;;;;;;;6278045;22;20222;-61
2021/10/15 02:24:26;;;;;;;13.38;10.30;;;;;;;;;;6278070;22;20140;-61
2021/10/15 02:26:52;;;;;;;14.68;10.93;;;;;;;;;;6277918;22;20155;-61
2021/10/15 02:29:18;;;;;;;12.95;10.25;;;;;;;;;;6278079;22;20570;-61
2021/10/15 02:31:44;;;;;;;14.93;10.68;;;;;;;;;;6277952;22;20140;-61
2021/10/15 02:34:10;;;;;;;16.58;10.63;;;;;;;;;;6277934;22;20161;-61
2021/10/15 02:36:36;;;;;;;18.75;11.93;;;;;;;;;;6278286;22;20152;-61
2021/10/15 02:39:02;;;;;;;17.98;11.18;;;;;;;;;;6277744;22;20225;-61
2021/10/15 02:41:28;;;;;;;15.13;10.50;;;;;;;;;;6278184;22;20224;-60
2021/10/15 02:43:54;;;;;;;15.45;10.95;;;;;;;;;;6278524;22;20459;-60
2021/10/15 02:46:20;;;;;;;16.67;11.55;;;;;;;;;;6277904;22;20136;-58
2021/10/15 02:48:46;;;;;;;15.55;11.38;;;;;;;;;;6277905;22;20396;-60
2021/10/15 02:51:12;;;;;;;15.55;11.25;;;;;;;;;;6278300;22;20144;-59
2021/10/15 02:53:38;;;;;;;14.90;11.10;;;;;;;;;;6277806;22;20151;-59
2021/10/15 02:56:04;;;;;;;16.83;11.55;;;;;;;;;;6277975;22;20424;-60
2021/10/15 02:58:30;;;;;;;16.55;12.23;;;;;;;;;;6278024;22;20198;-59
2021/10/15 03:00:57;;;;;;;16.65;11.95;;;;;;;;;;6277818;22;20418;-59
2021/10/15 03:03:23;;;;;;;15.85;11.73;;;;;;;;;;6277930;22;20192;-59
2021/10/15 03:05:49;;;;;;;15.25;11.68;;;;;;;;;;6277791;22;20415;-60
2021/10/15 03:08:15;;;;;;;16.30;11.00;;;;;;;;;;6277723;22;20139;-60
2021/10/15 03:10:41;;;;;;;14.77;11.80;;;;;;;;;;6277717;22;20473;-59
2021/10/15 03:13:07;;;;;;;14.25;10.77;;;;;;;;;;6277578;22;20147;-60
2021/10/15 03:15:33;;;;;;;19.45;11.68;;;;;;;;;;6277762;22;20147;-60
2021/10/15 03:17:59;;;;;;;13.70;10.90;;;;;;;;;;6277347;22;20186;-61
2021/10/15 03:20:25;;;;;;;15.10;11.32;;;;;;;;;;6277636;22;20136;-61
2021/10/15 03:22:51;;;;;;;14.43;11.23;;;;;;;;;;6277384;22;20207;-60
2021/10/15 03:25:17;;;;;;;17.48;11.82;;;;;;;;;;6277330;22;20576;-60
2021/10/15 03:27:43;;;;;;;15.90;11.93;;;;;;;;;;6277472;22;20144;-60
2021/10/15 03:30:09;;;;;;;15.98;12.65;;;;;;;;;;6277524;22;20143;-62
2021/10/15 03:32:35;;;;;;;16.38;12.20;;;;;;;;;;6277391;22;20144;-62
2021/10/15 03:35:01;;;;;;;18.50;13.00;;;;;;;;;;6277462;22;20471;-62
2021/10/15 03:37:28;;;;;;;19.63;13.07;;;;;;;;;;6277312;22;20162;-62
2021/10/15 03:39:54;;;;;;;17.92;13.02;;;;;;;;;;6277456;22;20140;-62
2021/10/15 03:42:20;;;;;;;18.45;13.35;;;;;;;;;;6277609;22;20178;-62
2021/10/15 03:44:46;;;;;;;16.83;12.75;;;;;;;;;;6277817;22;20140;-62
2021/10/15 03:47:12;;;;;;;19.33;13.32;;;;;;;;;;6277819;22;20461;-62
2021/10/15 03:49:38;;;;;;;21.17;14.55;;;;;;;;;;6277535;22;20535;-62
2021/10/15 03:52:04;;;;;;;19.70;14.15;;;;;;;;;;6278073;22;20155;-62
2021/10/15 03:54:30;;;;;;;17.23;13.73;;;;;;;;;;6277751;22;20150;-62
2021/10/15 03:56:56;;;;;;;18.35;13.48;;;;;;;;;;6277841;22;20218;-62
2021/10/15 03:59:22;;;;;;;16.70;12.80;;;;;;;;;;6277448;22;20191;-62
2021/10/15 04:01:48;;;;;;;16.27;14.02;;;;;;;;;;6277657;22;20551;-62
2021/10/15 04:04:14;;;;;;;18.02;12.40;;;;;;;;;;6277751;22;20143;-61
2021/10/15 04:06:39;;;;;;;21.02;13.43;;;;;;;;;;6277455;22;20450;-61
2021/10/15 04:09:06;;;;;;;17.08;13.73;;;;;;;;;;6277599;22;20150;-61
2021/10/15 04:11:32;;;;;;;17.67;13.57;;;;;;;;;;6277637;22;20211;-62
2021/10/15 04:13:58;;;;;;;18.00;13.05;;;;;;;;;;6277453;22;20167;-61
2021/10/15 04:16:24;;;;;;;19.38;13.60;;;;;;;;;;6278127;22;20147;-60
2021/10/15 04:18:50;;;;;;;16.52;12.40;;;;;;;;;;6277641;22;20255;-61
2021/10/15 04:21:16;;;;;;;15.82;11.73;;;;;;;;;;6277963;22;20511;-62
2021/10/15 04:23:42;;;;;;;17.23;12.27;;;;;;;;;;6277603;22;20407;-61
2021/10/15 04:26:08;;;;;;;18.75;12.98;;;;;;;;;;6277378;22;20155;-61
2021/10/15 04:28:34;;;;;;;17.88;13.18;;;;;;;;;;6277710;22;20150;-61
2021/10/15 04:31:00;;;;;;;18.60;13.32;;;;;;;;;;6277858;22;20206;-61
2021/10/15 04:33:26;;;;;;;16.63;11.15;;;;;;;;;;6277265;22;20511;-62
2021/10/15 04:35:52;;;;;;;16.10;12.07;;;;;;;;;;6277287;22;20283;-62
2021/10/15 04:38:18;;;;;;;16.40;12.25;;;;;;;;;;6277467;22;20199;-62
2021/10/15 04:40:44;;;;;;;15.93;12.00;;;;;;;;;;6277171;22;20171;-62
2021/10/15 04:43:10;;;;;;;18.02;13.40;;;;;;;;;;6277092;22;20423;-62
2021/10/15 04:45:36;;;;;;;13.68;11.77;;;;;;;;;;6277052;22;20135;-62
2021/10/15 04:48:02;;;;;;;16.02;12.63;;;;;;;;;;6277324;22;20154;-62
2021/10/15 04:50:29;;;;;;;17.02;13.05;;;;;;;;;;6276882;22;20570;-62
2021/10/15 04:52:54;;;;;;;18.50;12.50;;;;;;;;;;6277340;22;20201;-62
2021/10/15 04:55:20;;;;;;;16.80;12.23;;;;;;;;;;6276812;22;20832;-62
2021/10/15 04:57:46;;;;;;;15.52;11.73;;;;;;;;;;6277199;22;20253;-62
2021/10/15 05:00:12;;;;;;;13.32;10.82;;;;;;;;;;6276681;22;20203;-62
2021/10/15 05:02:41;;;;;;;17.83;12.68;;;;;;;;;;6276774;22;20614;-62
2021/10/15 05:05:08;;;;;;;16.48;12.10;;;;;;;;;;6277092;22;20140;-62
2021/10/15 05:07:35;;;;;;;17.17;11.60;;;;;;;;;;6277130;22;20143;-62
2021/10/15 05:10:01;;;;;;;15.77;11.02;;;;;;;;;;6276944;22;20424;-62
2021/10/15 05:12:27;;;;;;;14.07;10.82;;;;;;;;;;6276716;22;20139;-62
2021/10/15 05:14:54;;;;;;;15.02;10.57;;;;;;;;;;6276663;22;20573;-62
2021/10/15 05:17:20;;;;;;;12.35;10.13;;;;;;;;;;6276539;22;20527;-62
2021/10/15 05:19:47;;;;;;;13.48;10.80;;;;;;;;;;6276797;22;20135;-62
2021/10/15 05:22:13;;;;;;;12.65;10.60;;;;;;;;;;6276837;22;20179;-62
2021/10/15 05:24:39;;;;;;;13.52;10.88;;;;;;;;;;6276871;22;20140;-61
2021/10/15 05:27:05;;;;;;;13.85;10.25;;;;;;;;;;6276388;22;20213;-62
2021/10/15 05:29:31;;;;;;;12.43;9.55;;;;;;;;;;6276348;22;20514;-62
2021/10/15 05:31:57;;;;;;;16.42;10.68;;;;;;;;;;6276448;22;20143;-62
2021/10/15 05:34:23;;;;;;;10.90;9.57;;;;;;;;;;6276601;22;20200;-62
2021/10/15 05:36:49;;;;;;;12.52;10.40;;;;;;;;;;6276513;22;20574;-62
2021/10/15 05:39:15;;;;;;;14.43;10.55;;;;;;;;;;6276394;22;20171;-62
2021/10/15 05:41:41;;;;;;;12.02;10.10;;;;;;;;;;6276642;22;20143;-62
2021/10/15 05:44:07;;;;;;;13.10;9.80;;;;;;;;;;6276675;22;20523;-61
2021/10/15 05:46:33;;;;;;;11.15;8.30;;;;;;;;;;6276383;22;20144;-62
2021/10/15 05:48:59;;;;;;;12.90;10.50;;;;;;;;;;6276283;22;20150;-62
2021/10/15 05:51:26;;;;;;;13.60;10.48;;;;;;;;;;6276555;22;20180;-62
2021/10/15 05:53:56;;;;;;;14.10;10.50;;;;;;;;;;6276226;22;20143;-62
2021/10/15 05:56:38;;;;;;;16.10;10.82;;;;;;;;;;6276521;22;20226;-62
2021/10/15 05:59:04;;;;;;;15.77;10.52;;;;;;;;;;6276467;22;20163;-62
2021/10/15 06:01:32;;;;;;;15.77;10.18;;;;;;;;;;6276348;22;20147;-62
2021/10/15 06:14:33;;;;;;;15.98;10.88;;;;;;;;;;6276039;22;20205;-62
2021/10/15 06:17:08;;;;;;;12.68;9.95;;;;;;;;;;6276427;22;20151;-62
2021/10/15 06:19:52;;;;;;;13.07;9.02;;;;;;;;;;6276455;22;20166;-62
2021/10/15 06:22:19;;;;;;;12.73;9.40;;;;;;;;;;6276855;22;20124;-62
2021/10/15 06:24:44;;;;;;;14.77;10.02;;;;;;;;;;6275853;22;20140;-62
2021/10/15 06:27:10;;;;;;;12.05;9.20;;;;;;;;;;6275896;22;20174;-62
2021/10/15 06:29:36;;;;;;;12.38;9.82;;;;;;;;;;6275991;22;20203;-62
2021/10/15 06:32:03;;;;;;;11.68;8.45;;;;;;;;;;6276316;22;20147;-62
2021/10/15 06:34:28;;;;;;;13.27;9.10;;;;;;;;;;6249078;22;20219;-61
2021/10/15 06:36:54;;;;;;;10.80;8.88;;;;;;;;;;6275881;22;20581;-62
2021/10/15 06:39:20;;;;;;;10.90;7.85;;;;;;;;;;6275760;22;20163;-62
2021/10/15 06:41:46;;;;;;;10.15;8.00;;;;;;;;;;6275791;22;20147;-61
2021/10/15 06:44:12;;;;;;;12.80;8.23;;;;;;;;;;6275826;22;20569;-61
2021/10/15 06:46:38;;;;;;;10.57;8.18;;;;;;;;;;6275866;22;20169;-61
2021/10/15 06:49:04;;;;;;;11.88;8.05;;;;;;;;;;6276072;22;20139;-62
2021/10/15 06:51:30;;;;;;;10.90;8.23;;;;;;;;;;6275850;22;20143;-61
2021/10/15 06:53:56;;;;;;;11.23;7.63;;;;;;;;;;6276077;22;20143;-62
2021/10/15 06:56:22;;;;;;;9.55;7.32;;;;;;;;;;6275560;22;20218;-62
2021/10/15 06:58:48;;;;;;;10.90;8.50;;;;;;;;;;6277553;22;20174;-61
2021/10/15 07:01:15;;;;;;;12.32;8.77;;;;;;;;;;6278128;22;20144;-62
2021/10/15 07:03:41;;;;;;;11.13;7.45;;;;;;;;;;6277735;22;20555;-61
2021/10/15 07:06:07;;;;;;;10.68;7.50;;;;;;;;;;6277581;22;20524;-61
2021/10/15 07:08:33;;;;;;;8.43;7.22;;;;;;;;;;6277659;22;20140;-61
2021/10/15 07:10:59;;;;;;;10.18;7.55;;;;;;;;;;6277928;22;20179;-61
2021/10/15 07:13:25;;;;;;;10.95;7.97;;;;;;;;;;6278109;22;20151;-61
2021/10/15 07:15:51;;;;;;;10.70;8.20;;;;;;;;;;6277657;22;20143;-61
2021/10/15 07:18:17;;;;;;;8.50;7.03;;;;;;;;;;6278027;22;20277;-61
2021/10/15 07:20:43;;;;;;;8.77;7.68;;;;;;;;;;6279090;22;20459;-63
2021/10/15 07:23:10;;;;;;;12.23;8.18;;;;;;;;;;6277638;22;20215;-62
2021/10/15 07:25:36;;;;;;;11.95;8.32;;;;;;;;;;6277513;22;20171;-61
2021/10/15 07:28:02;;;;;;;12.60;8.73;;;;;;;;;;6277659;22;20154;-61
2021/10/15 07:30:28;;;;;;;5.70;3.83;;;;;;;;;;6277484;22;20139;-62
2021/10/15 07:32:54;;;;;;;5.63;2.40;;;;;;;;;;6277612;22;20153;-62
2021/10/15 07:35:20;;;;;;;5.43;1.90;;;;;;;;;;6277966;22;20670;-60
2021/10/15 07:37:46;;;;;;;3.47;1.40;;;;;;;;;;6277587;22;20205;-64
2021/10/15 07:40:12;;;;;;;3.25;1.20;;;;;;;;;;6277541;22;20199;-63
2021/10/15 07:42:38;;;;;;;5.15;1.60;;;;;;;;;;6277537;22;20214;-64
2021/10/15 07:45:04;;;;;;;3.38;1.25;;;;;;;;;;6277820;22;20147;-64
2021/10/15 07:47:30;;;;;;;5.60;1.17;;;;;;;;;;6277588;22;20146;-65
2021/10/15 07:49:56;;;;;;;4.05;1.05;;;;;;;;;;6277861;22;20140;-65
2021/10/15 07:52:22;;;;;;;3.88;1.30;;;;;;;;;;6277679;22;20140;-65
2021/10/15 07:54:48;;;;;;;3.65;1.02;;;;;;;;;;6278108;22;20474;-65
2021/10/15 07:57:14;;;;;;;4.82;0.93;;;;;;;;;;6278033;22;20656;-65
2021/10/15 07:59:41;;;;;;;3.78;0.95;;;;;;;;;;6278144;22;20167;-65
2021/10/15 08:02:07;;;;;;;4.38;0.95;;;;;;;;;;6278088;22;20132;-64
2021/10/15 08:04:33;;;;;;;3.92;0.88;;;;;;;;;;6277768;22;20452;-64
2021/10/15 08:06:59;;;;;;;4.60;0.80;;;;;;;;;;6277526;22;20135;-64
2021/10/15 08:09:25;;;;;;;3.67;1.08;;;;;;;;;;6277477;22;20163;-63
2021/10/15 08:11:51;;;;;;;2.45;0.70;;;;;;;;;;6277900;22;20214;-63
2021/10/15 08:14:18;;;;;;;8.15;0.95;;;;;;;;;;6277700;22;20554;-63
2021/10/15 08:16:44;;;;;;;1.38;0.60;;;;;;;;;;6277898;22;20198;-62
2021/10/15 08:19:10;;;;;;;3.70;0.73;;;;;;;;;;6277481;22;20519;-63
2021/10/15 08:21:36;;;;;;;4.53;1.10;;;;;;;;;;6277360;22;20186;-63
2021/10/15 08:24:02;;;;;;;3.05;0.73;;;;;;;;;;6277386;22;20178;-63
2021/10/15 08:26:28;;;;;;;4.80;0.98;;;;;;;;;;6277087;22;20152;-63
2021/10/15 08:28:58;;;;;;;3.67;0.98;;;;;;;;;;6277161;22;20212;-63
2021/10/15 08:31:24;;;;;;;6.50;0.90;;;;;;;;;;6277522;22;20139;-63
2021/10/15 08:33:50;;;;;;;2.22;0.70;;;;;;;;;;6277072;22;20151;-63
2021/10/15 08:36:17;;;;;;;2.50;0.82;;;;;;;;;;6277139;22;20143;-63
2021/10/15 08:38:43;;;;;;;6.28;0.90;;;;;;;;;;6277434;22;20175;-63
2021/10/15 08:41:10;;;;;;;5.30;0.88;;;;;;;;;;6277179;22;20160;-63
2021/10/15 08:43:37;;;;;;;5.60;0.82;;;;;;;;;;6277055;22;20174;-63
2021/10/15 08:46:04;;;;;;;5.22;1.02;;;;;;;;;;6277061;22;20152;-63
2021/10/15 08:48:30;;;;;;;7.43;1.40;;;;;;;;;;6277398;22;20490;-63
2021/10/15 08:50:56;;;;;;;4.22;0.95;;;;;;;;;;6277041;22;20171;-63
2021/10/15 08:53:22;;;;;;;5.10;0.82;;;;;;;;;;6276812;22;20143;-63
2021/10/15 08:55:48;;;;;;;4.97;0.70;;;;;;;;;;6276906;22;20518;-63
2021/10/15 08:58:14;;;;;;;6.63;1.17;;;;;;;;;;6249903;22;20233;-63
2021/10/15 09:00:40;;;;;;;6.18;0.88;;;;;;;;;;6277030;22;20498;-64
2021/10/15 09:03:15;;;;;;;4.97;1.10;;;;;;;;;;6276686;22;20135;-64
2021/10/15 09:05:43;;;;;;;4.57;1.00;;;;;;;;;;6277087;22;20143;-64
2021/10/15 09:08:09;;;;;;;6.70;1.42;;;;;;;;;;6276677;22;20227;-64
2021/10/15 09:10:35;;;;;;;4.55;1.10;;;;;;;;;;6277226;22;20212;-64
2021/10/15 09:13:09;;;;;;;5.40;1.00;;;;;;;;;;6276551;22;20143;-64
2021/10/15 09:15:36;;;;;;;2.38;1.10;;;;;;;;;;6249908;22;20144;-64
2021/10/15 09:18:12;;;;;;;5.78;1.20;;;;;;;;;;6249533;22;20480;-64
2021/10/15 09:20:38;;;;;;;4.60;1.00;;;;;;;;;;6276380;22;20147;-64
2021/10/15 09:23:04;;;;;;;6.38;1.08;;;;;;;;;;6276526;22;20139;-64
2021/10/15 09:25:34;;;;;;;5.72;1.10;;;;;;;;;;6277175;22;20166;-64
2021/10/15 09:28:01;;;;;;;7.57;1.15;;;;;;;;;;6276334;22;20143;-64
2021/10/15 09:30:30;;;;;;;3.67;0.85;;;;;;;;;;6276824;22;20144;-64
2021/10/15 09:32:58;;;;;;;4.00;1.00;;;;;;;;;;6276351;22;20194;-64
2021/10/15 09:35:25;;;;;;;7.60;1.17;;;;;;;;;;6276527;22;20140;-64
2021/10/15 09:37:59;;;;;;;4.82;0.85;;;;;;;;;;6276330;22;20598;-64
2021/10/15 09:40:27;;;;;;;3.70;1.00;;;;;;;;;;6276819;22;20432;-64
2021/10/15 09:42:54;;;;;;;3.92;1.25;;;;;;;;;;6276184;22;20144;-64
2021/10/15 09:45:21;;;;;;;3.90;1.05;;;;;;;;;;6276917;22;20144;-64
2021/10/15 09:47:47;;;;;;;6.45;1.00;;;;;;;;;;6276755;22;20201;-64
2021/10/15 09:50:18;;;;;;;6.90;1.40;;;;;;;;;;6276464;22;20235;-64
2021/10/15 09:52:45;;;;;;;3.30;1.13;;;;;;;;;;6276314;22;20144;-64
2021/10/15 09:55:20;;;;;;;6.82;1.10;;;;;;;;;;6276481;22;20601;-64
2021/10/15 09:57:48;;;;;;;6.85;0.95;;;;;;;;;;6276536;22;20222;-63
2021/10/15 10:00:18;;;;;;;6.53;1.65;;;;;;;;;;6276309;22;20136;-64
2021/10/15 10:02:44;;;;;;;5.45;0.90;;;;;;;;;;6276357;22;20193;-63
2021/10/15 10:05:13;;;;;;;5.25;1.45;;;;;;;;;;6276680;22;20485;-64
2021/10/15 10:07:40;;;;;;;7.22;1.33;;;;;;;;;;6276254;22;20578;-64
2021/10/15 10:10:07;;;;;;;3.35;1.10;;;;;;;;;;6276201;22;20139;-65
2021/10/15 10:12:37;;;;;;;6.22;1.20;;;;;;;;;;6275677;22;20152;-64
2021/10/15 10:15:04;;;;;;;5.20;1.20;;;;;;;;;;6276274;22;20139;-63
2021/10/15 10:17:31;;;;;;;5.00;1.00;;;;;;;;;;6276131;22;20547;-63
2021/10/15 10:20:00;;;;;;;5.25;1.58;;;;;;;;;;6276071;22;20554;-63
2021/10/15 10:22:28;;;;;;;5.93;1.33;;;;;;;;;;6276353;22;20136;-63
2021/10/15 10:24:55;;;;;;;7.82;1.23;;;;;;;;;;6276619;22;20139;-63
2021/10/15 10:27:31;;;;;;;9.73;1.60;;;;;;;;;;6276485;22;20171;-63
2021/10/15 10:29:57;;;;;;;5.72;1.20;;;;;;;;;;6276165;22;20136;-63
2021/10/15 10:32:24;;;;;;;5.22;1.10;;;;;;;;;;6277335;22;20147;-63
2021/10/15 10:34:50;;;;;;;5.95;1.10;;;;;;;;;;6278546;22;20140;-63
2021/10/15 10:37:18;;;;;;;9.32;1.73;;;;;;;;;;6278320;22;20329;-63
2021/10/15 10:39:44;;;;;;;4.90;1.10;;;;;;;;;;6278053;22;20199;-63
2021/10/15 10:42:12;;;;;;;5.20;1.30;;;;;;;;;;6277870;22;20171;-63
2021/10/15 10:44:40;;;;;;;7.72;1.88;;;;;;;;;;6278240;22;20205;-63
2021/10/15 10:47:17;;;;;;;6.85;1.85;;;;;;;;;;6278118;22;20150;-64
2021/10/15 10:49:51;;;;;;;8.15;1.90;;;;;;;;;;6277695;22;20294;-64
2021/10/15 10:52:19;;;;;;;4.90;1.35;;;;;;;;;;6277523;22;20587;-63
2021/10/15 10:54:46;;;;;;;7.18;1.73;;;;;;;;;;6277835;22;20481;-64
2021/10/15 10:57:13;;;;;;;10.05;2.10;;;;;;;;;;6278122;22;20155;-63
2021/10/15 10:59:39;;;;;;;9.15;1.70;;;;;;;;;;6250874;22;20455;-64
2021/10/15 11:02:11;;;;;;;6.35;1.30;;;;;;;;;;6278283;22;20147;-64
2021/10/15 11:04:48;;;;;;;8.65;1.30;;;;;;;;;;6277989;22;20209;-62
2021/10/15 11:07:17;;;;;;;8.45;1.85;;;;;;;;;;6277774;22;20174;-64
2021/10/15 11:09:48;;;;;;;9.95;1.80;;;;;;;;;;6277904;22;20614;-65
2021/10/15 11:12:15;;;;;;;8.27;1.50;;;;;;;;;;6278088;22;20163;-64
2021/10/15 11:14:55;;;;;;;8.82;1.80;;;;;;;;;;6277701;22;20551;-65
2021/10/15 11:17:30;;;;;;;6.72;2.03;;;;;;;;;;6278260;22;20553;-63
2021/10/15 11:20:26;;;;;;;6.50;1.92;;;;;;;;;;6277970;22;20190;-63
2021/10/15 11:22:54;;;;;;;5.80;1.15;;;;;;;;;;6258366;22;20209;-61
2021/10/15 11:25:20;;;;;;;7.00;1.80;;;;;;;;;;6277772;22;20171;-63
2021/10/15 11:27:53;;;;;;;7.63;1.83;;;;;;;;;;6277727;22;20504;-63
2021/10/15 11:30:20;;;;;;;7.30;1.50;;;;;;;;;;6277841;22;20215;-62
2021/10/15 11:32:47;;;;;;;9.45;1.50;;;;;;;;;;6277760;22;20197;-62
2021/10/15 11:35:20;;;;;;;5.05;1.35;;;;;;;;;;6278260;22;20143;-62
2021/10/15 11:37:48;;;;;;;8.57;1.55;;;;;;;;;;6277955;22;20147;-62
2021/10/15 11:40:14;;;;;;;7.85;1.40;;;;;;;;;;6278014;22;20197;-62
2021/10/15 11:42:40;;;;;;;6.30;1.25;;;;;;;;;;6277829;22;20265;-62
2021/10/15 11:45:25;;;;;;;10.75;1.80;;;;;;;;;;6278201;22;20515;-62
2021/10/15 11:47:57;;;;;;;5.53;1.38;;;;;;;;;;6278561;22;20144;-62
2021/10/15 11:50:35;;;;;;;5.72;1.23;;;;;;;;;;6278076;22;20463;-62
2021/10/15 11:53:02;;;;;;;6.30;1.35;;;;;;;;;;6278537;22;20445;-62
2021/10/15 11:55:35;;;;;;;9.73;2.10;;;;;;;;;;6278168;22;20140;-62
2021/10/15 11:58:16;;;;;;;5.50;1.45;;;;;;;;;;6278394;22;20181;-62
2021/10/15 12:00:58;;;;;;;9.57;1.75;;;;;;;;;;6278072;22;20139;-62
2021/10/15 12:03:25;;;;;;;6.10;1.60;;;;;;;;;;6278289;22;20205;-62
2021/10/15 12:05:51;;;;;;;7.10;1.58;;;;;;;;;;6278076;22;20178;-62
2021/10/15 12:08:18;;;;;;;4.95;1.50;;;;;;;;;;6277979;22;20140;-62
2021/10/15 12:10:44;;;;;;;8.82;2.13;;;;;;;;;;6277946;22;20470;-62
2021/10/15 12:13:10;;;;;;;8.10;1.55;;;;;;;;;;6278311;22;20144;-62
2021/10/15 12:15:36;;;;;;;7.47;1.58;;;;;;;;;;6278107;22;20601;-62
2021/10/15 12:18:06;;;;;;;5.15;1.40;;;;;;;;;;6278120;22;20213;-62
2021/10/15 12:20:32;;;;;;;8.57;1.73;;;;;;;;;;6277951;22;20140;-61
2021/10/15 12:23:05;;;;;;;8.38;1.77;;;;;;;;;;6278269;22;20569;-61
2021/10/15 12:25:31;;;;;;;8.48;1.55;;;;;;;;;;6277737;22;20148;-62
2021/10/15 12:27:57;;;;;;;9.23;1.67;;;;;;;;;;6277908;22;20230;-62
2021/10/15 12:30:26;;;;;;;6.70;1.35;;;;;;;;;;6277903;22;20175;-62
2021/10/15 12:32:52;;;;;;;6.97;1.83;;;;;;;;;;6277651;22;20585;-62
2021/10/15 12:35:21;;;;;;;8.35;1.60;;;;;;;;;;6277982;22;20186;-62
2021/10/15 12:37:51;;;;;;;11.45;1.85;;;;;;;;;;6278117;22;20140;-62
2021/10/15 12:40:22;;;;;;;8.85;1.80;;;;;;;;;;6278491;22;20143;-62
2021/10/15 12:43:09;;;;;;;7.68;1.48;;;;;;;;;;6277948;22;20136;-63
2021/10/15 12:45:38;;;;;;;10.90;1.77;;;;;;;;;;6262174;22;20150;-62
2021/10/15 12:48:19;;;;;;;9.27;1.65;;;;;;;;;;6277605;22;20479;-63
2021/10/15 12:50:57;;;;;;;5.25;1.25;;;;;;;;;;6277450;22;20159;-63
2021/10/15 12:53:23;;;;;;;7.10;1.42;;;;;;;;;;6277729;22;20147;-63
2021/10/15 12:55:51;;;;;;;9.48;1.85;;;;;;;;;;6276637;22;20143;-63
2021/10/15 12:58:17;;;;;;;11.27;1.83;;;;;;;;;;6276883;22;20645;-63
2021/10/15 13:00:53;;;;;;;7.50;1.50;;;;;;;;;;6277038;22;20167;-63
2021/10/15 13:03:19;;;;;;;9.20;1.60;;;;;;;;;;6276865;22;20551;-62
2021/10/15 13:05:46;;;;;;;5.97;1.40;;;;;;;;;;6277167;22;20166;-63
2021/10/15 13:08:14;;;;;;;8.02;1.77;;;;;;;;;;6277084;22;20139;-63
2021/10/15 13:10:39;;;;;;;8.18;1.70;;;;;;;;;;6276921;22;20551;-63
2021/10/15 13:13:05;;;;;;;6.53;1.33;;;;;;;;;;6277104;22;20150;-63
2021/10/15 13:15:31;;;;;;;8.00;1.90;;;;;;;;;;6277157;22;20139;-63
2021/10/15 13:17:58;;;;;;;7.93;1.65;;;;;;;;;;6277023;22;20529;-63
2021/10/15 13:20:27;;;;;;;9.73;1.80;;;;;;;;;;6276725;22;20624;-63
2021/10/15 13:22:54;;;;;;;8.07;1.58;;;;;;;;;;6276830;22;20150;-63
2021/10/15 13:25:20;;;;;;;10.32;1.60;;;;;;;;;;6276269;22;20162;-63
2021/10/15 13:27:46;;;;;;;9.40;1.75;;;;;;;;;;6276643;22;20139;-63
2021/10/15 13:30:12;;;;;;;5.18;1.45;;;;;;;;;;6276607;22;20140;-63
2021/10/15 13:32:38;;;;;;;8.13;1.60;;;;;;;;;;6276786;22;20140;-63
2021/10/15 13:35:05;;;;;;;6.30;1.42;;;;;;;;;;6276956;22;20228;-63
2021/10/15 13:37:34;;;;;;;6.78;1.20;;;;;;;;;;6276785;22;20491;-63
2021/10/15 13:40:01;;;;;;;7.70;1.48;;;;;;;;;;6276626;22;20155;-63
2021/10/15 13:45:18;;;;;;;12.38;1.67;;;;;;;;;;6276867;22;20201;-63
2021/10/15 13:47:47;;;;;;;8.10;1.65;;;;;;;;;;6277091;22;20131;-63
2021/10/15 13:50:13;;;;;;;8.65;2.10;;;;;;;;;;6276861;22;20140;-64
2021/10/15 13:52:40;;;;;;;8.27;1.50;;;;;;;;;;6276380;22;20139;-64
2021/10/15 13:55:08;;;;;;;7.75;1.73;;;;;;;;;;6276326;22;20136;-63
2021/10/15 13:57:35;;;;;;;7.88;1.75;;;;;;;;;;6277515;22;20182;-64
2021/10/15 14:00:10;;;;;;;9.13;1.85;;;;;;;;;;6278006;22;20150;-64
2021/10/15 14:02:41;;;;;;;9.75;1.48;;;;;;;;;;6278202;22;20598;-62
2021/10/15 14:05:07;;;;;;;10.57;1.70;;;;;;;;;;6278182;22;20155;-63
2021/10/15 14:07:33;;;;;;;7.03;1.30;;;;;;;;;;6280232;22;20158;-63
2021/10/15 14:09:59;;;;;;;8.43;1.60;;;;;;;;;;6280443;22;20500;-62
2021/10/15 14:12:25;;;;;;;8.75;1.42;;;;;;;;;;6279499;22;20171;-63
2021/10/15 14:14:54;;;;;;;6.95;1.55;;;;;;;;;;6253069;22;20147;-61
2021/10/15 14:17:20;;;;;;;9.07;1.83;;;;;;;;;;6280139;22;20150;-62
2021/10/15 14:19:46;;;;;;;7.18;1.50;;;;;;;;;;6279522;22;20163;-63
2021/10/15 14:22:12;;;;;;;6.78;1.30;;;;;;;;;;6279725;22;20440;-62
2021/10/15 14:24:38;;;;;;;5.03;1.42;;;;;;;;;;6279306;22;20136;-63
2021/10/15 14:27:05;;;;;;;6.50;1.27;;;;;;;;;;6278914;22;20160;-62
2021/10/15 14:29:31;;;;;;;10.70;1.75;;;;;;;;;;6278938;22;20599;-62
2021/10/15 14:31:57;;;;;;;10.48;2.13;;;;;;;;;;6278435;22;20192;-63
2021/10/15 14:34:23;;;;;;;6.47;1.42;;;;;;;;;;6278510;22;20143;-63
2021/10/15 14:36:49;;;;;;;6.57;1.52;;;;;;;;;;6277975;22;20147;-63
2021/10/15 14:39:15;;;;;;;6.38;1.60;;;;;;;;;;6278424;22;20179;-63
2021/10/15 14:41:41;;;;;;;6.50;1.60;;;;;;;;;;6278322;22;20445;-63
2021/10/15 14:44:07;;;;;;;6.57;1.20;;;;;;;;;;6278549;22;20140;-63
2021/10/15 14:46:33;;;;;;;4.07;1.20;;;;;;;;;;6278042;22;20165;-63